createdAt,value
2018-08-25T00:00:59.670Z,11.60
2018-08-25T00:03:28.897Z,11.50
2018-08-25T00:05:58.015Z,11.50
2018-08-25T00:08:27.748Z,11.50
2018-08-25T00:10:56.945Z,11.40
2018-08-25T00:13:26.261Z,11.40
2018-08-25T00:15:55.332Z,11.40
2018-08-25T00:18:24.482Z,11.30
2018-08-25T00:20:53.789Z,11.30
2018-08-25T00:23:22.959Z,11.30
2018-08-25T00:25:51.978Z,11.30
2018-08-25T00:28:21.269Z,11.30
2018-08-25T00:30:55.685Z,11.30
2018-08-25T00:33:34.176Z,11.40
2018-08-25T00:36:03.648Z,11.30
2018-08-25T00:38:32.746Z,11.30
2018-08-25T00:41:02.267Z,11.30
2018-08-25T00:43:31.743Z,11.30
2018-08-25T00:46:00.825Z,11.30
2018-08-25T00:48:30.141Z,11.20
2018-08-25T00:50:59.234Z,11.30
2018-08-25T00:53:28.253Z,11.30
2018-08-25T00:55:57.491Z,11.20
2018-08-25T00:58:26.596Z,11.30
2018-08-25T01:00:55.659Z,11.30
2018-08-25T01:03:24.927Z,11.20
2018-08-25T01:05:54.051Z,11.20
2018-08-25T01:08:23.261Z,11.20
2018-08-25T01:10:52.523Z,11.10
2018-08-25T01:13:21.777Z,11.10
2018-08-25T01:15:51.911Z,11.10
2018-08-25T01:18:21.150Z,11.00
2018-08-25T01:20:50.771Z,11.00
2018-08-25T01:23:20.011Z,11.00
2018-08-25T01:25:49.418Z,10.90
2018-08-25T01:28:18.675Z,10.90
2018-08-25T01:30:48.324Z,10.90
2018-08-25T01:33:17.640Z,10.80
2018-08-25T01:35:46.834Z,10.80
2018-08-25T01:38:16.503Z,10.80
2018-08-25T01:40:45.503Z,10.70
2018-08-25T01:43:14.759Z,10.70
2018-08-25T01:45:43.799Z,10.70
2018-08-25T01:48:12.855Z,10.60
2018-08-25T01:50:41.727Z,10.60
2018-08-25T01:53:10.606Z,10.60
2018-08-25T01:55:39.786Z,10.50
2018-08-25T01:58:09.242Z,10.50
2018-08-25T02:03:41.599Z,10.50
2018-08-25T02:06:11.308Z,10.50
2018-08-25T02:08:40.196Z,10.40
2018-08-25T02:11:09.089Z,10.40
2018-08-25T02:13:37.979Z,10.40
2018-08-25T02:16:07.328Z,10.40
2018-08-25T02:18:36.266Z,10.40
2018-08-25T02:21:05.358Z,10.40
2018-08-25T02:23:34.400Z,10.40
2018-08-25T02:26:03.216Z,10.40
2018-08-25T02:28:32.303Z,10.40
2018-08-25T02:31:01.157Z,10.30
2018-08-25T02:33:30.054Z,10.30
2018-08-25T02:35:59.031Z,10.30
2018-08-25T02:38:27.920Z,10.30
2018-08-25T02:40:56.751Z,10.30
2018-08-25T02:43:25.779Z,10.30
2018-08-25T02:45:54.601Z,10.30
2018-08-25T02:48:23.468Z,10.30
2018-08-25T02:50:52.536Z,10.20
2018-08-25T02:53:21.387Z,10.20
2018-08-25T02:55:50.392Z,10.20
2018-08-25T02:58:19.532Z,10.30
2018-08-25T03:00:48.375Z,10.30
2018-08-25T03:03:17.195Z,10.30
2018-08-25T03:05:46.139Z,10.30
2018-08-25T03:08:15.068Z,10.40
2018-08-25T03:10:43.959Z,10.40
2018-08-25T03:13:13.074Z,10.40
2018-08-25T03:15:41.874Z,10.40
2018-08-25T03:18:10.751Z,10.40
2018-08-25T03:20:39.839Z,10.40
2018-08-25T03:23:08.666Z,10.50
2018-08-25T03:25:37.506Z,10.50
2018-08-25T03:28:06.631Z,10.60
2018-08-25T03:30:35.499Z,10.70
2018-08-25T03:33:04.343Z,10.80
2018-08-25T03:35:33.359Z,10.80
2018-08-25T03:38:02.184Z,10.90
2018-08-25T03:40:30.991Z,11.00
2018-08-25T03:42:59.974Z,11.00
2018-08-25T03:45:28.933Z,11.00
2018-08-25T03:47:57.788Z,11.00
2018-08-25T03:50:26.839Z,11.00
2018-08-25T03:52:55.715Z,11.00
2018-08-25T03:55:24.659Z,11.00
2018-08-25T03:57:53.490Z,10.90
2018-08-25T04:00:22.365Z,10.90
2018-08-25T04:02:51.315Z,10.80
2018-08-25T04:05:20.291Z,10.90
2018-08-25T04:07:49.163Z,10.80
2018-08-25T04:10:18.131Z,10.80
2018-08-25T04:12:47.104Z,10.80
2018-08-25T04:15:16.060Z,10.80
2018-08-25T04:17:44.870Z,10.80
2018-08-25T04:20:13.898Z,10.80
2018-08-25T04:22:42.780Z,10.80
2018-08-25T04:25:11.621Z,10.70
2018-08-25T04:27:40.585Z,10.70
2018-08-25T04:30:09.458Z,10.70
2018-08-25T04:32:38.306Z,10.70
2018-08-25T04:35:07.357Z,10.70
2018-08-25T04:37:36.270Z,10.70
2018-08-25T04:40:05.385Z,10.70
2018-08-25T04:42:34.424Z,10.70
2018-08-25T04:45:03.602Z,10.70
2018-08-25T04:47:32.449Z,10.60
2018-08-25T04:50:01.683Z,10.70
2018-08-25T04:52:30.591Z,10.80
2018-08-25T04:54:59.483Z,10.80
2018-08-25T04:57:28.452Z,10.90
2018-08-25T04:59:57.278Z,11.00
2018-08-25T05:02:26.111Z,11.10
2018-08-25T05:04:55.355Z,11.20
2018-08-25T05:07:24.229Z,11.20
2018-08-25T05:09:53.370Z,11.30
2018-08-25T05:12:22.559Z,11.40
2018-08-25T05:14:51.382Z,11.50
2018-08-25T05:17:20.626Z,11.50
2018-08-25T05:19:49.606Z,11.60
2018-08-25T05:22:18.509Z,11.70
2018-08-25T05:24:47.315Z,11.80
2018-08-25T05:27:16.247Z,11.90
2018-08-25T05:29:45.108Z,12.00
2018-08-25T05:32:14.001Z,11.90
2018-08-25T05:34:42.891Z,11.90
2018-08-25T05:37:11.779Z,12.00
2018-08-25T05:39:40.720Z,12.10
2018-08-25T05:42:09.768Z,12.10
2018-08-25T05:44:38.619Z,12.20
2018-08-25T05:47:07.533Z,12.30
2018-08-25T05:49:36.513Z,12.40
2018-08-25T05:52:05.335Z,12.70
2018-08-25T05:54:34.162Z,12.70
2018-08-25T05:57:03.134Z,12.90
2018-08-25T05:59:31.967Z,13.10
2018-08-25T06:02:00.788Z,13.20
2018-08-25T06:04:29.703Z,13.40
2018-08-25T06:06:58.752Z,13.50
2018-08-25T06:09:27.582Z,13.60
2018-08-25T06:11:56.618Z,13.70
2018-08-25T06:14:25.599Z,13.70
2018-08-25T06:16:54.423Z,13.90
2018-08-25T06:19:23.450Z,13.90
2018-08-25T06:21:52.287Z,14.00
2018-08-25T06:24:21.115Z,14.10
2018-08-25T06:26:50.015Z,14.10
2018-08-25T06:29:18.898Z,14.20
2018-08-25T06:31:47.735Z,14.30
2018-08-25T06:34:16.675Z,14.40
2018-08-25T06:36:45.511Z,14.60
2018-08-25T06:39:14.369Z,14.70
2018-08-25T06:41:43.400Z,14.70
2018-08-25T06:44:12.451Z,14.60
2018-08-25T06:46:41.263Z,14.60
2018-08-25T06:49:10.276Z,14.50
2018-08-25T06:51:39.132Z,14.50
2018-08-25T06:54:08.019Z,14.50
2018-08-25T06:56:36.902Z,14.60
2018-08-25T06:59:05.763Z,14.90
2018-08-25T07:01:34.592Z,15.20
2018-08-25T07:04:03.593Z,15.40
2018-08-25T07:06:32.529Z,15.60
2018-08-25T07:09:01.375Z,15.80
2018-08-25T07:11:30.222Z,15.90
2018-08-25T07:13:59.235Z,16.00
2018-08-25T07:16:28.199Z,16.00
2018-08-25T07:18:57.048Z,16.10
2018-08-25T07:21:26.014Z,16.10
2018-08-25T07:23:54.826Z,15.90
2018-08-25T07:26:23.667Z,15.80
2018-08-25T07:28:52.662Z,15.60
2018-08-25T07:31:21.526Z,15.70
2018-08-25T07:33:50.333Z,15.90
2018-08-25T07:36:19.517Z,16.10
2018-08-25T07:38:48.402Z,16.20
2018-08-25T07:41:17.236Z,16.20
2018-08-25T07:43:46.273Z,16.10
2018-08-25T07:46:15.087Z,16.00
2018-08-25T07:48:43.960Z,15.90
2018-08-25T07:51:13.852Z,15.90
2018-08-25T07:53:42.770Z,15.90
2018-08-25T07:56:11.546Z,16.10
2018-08-25T07:58:40.630Z,16.40
2018-08-25T08:01:09.419Z,16.50
2018-08-25T08:03:38.231Z,16.60
2018-08-25T08:06:07.229Z,16.70
2018-08-25T08:08:36.158Z,16.70
2018-08-25T08:11:05.046Z,16.70
2018-08-25T08:13:33.984Z,16.50
2018-08-25T08:16:03.190Z,16.20
2018-08-25T08:18:32.119Z,16.10
2018-08-25T08:21:01.135Z,16.00
2018-08-25T08:23:30.010Z,16.10
2018-08-25T08:25:58.864Z,16.40
2018-08-25T08:28:27.871Z,16.60
2018-08-25T08:30:56.736Z,16.90
2018-08-25T08:33:25.575Z,17.10
2018-08-25T08:35:54.579Z,17.30
2018-08-25T08:38:23.718Z,17.40
2018-08-25T08:40:52.843Z,17.20
2018-08-25T08:43:21.903Z,17.20
2018-08-25T08:45:50.780Z,17.10
2018-08-25T08:48:19.590Z,17.20
2018-08-25T08:50:48.559Z,17.40
2018-08-25T08:53:17.410Z,17.60
2018-08-25T08:55:46.280Z,17.90
2018-08-25T08:58:15.355Z,18.00
2018-08-25T09:00:44.247Z,18.10
2018-08-25T09:03:13.087Z,18.00
2018-08-25T09:05:42.057Z,17.80
2018-08-25T09:08:10.917Z,17.60
2018-08-25T09:10:39.703Z,17.50
2018-08-25T09:13:08.663Z,17.40
2018-08-25T09:15:37.483Z,17.60
2018-08-25T09:18:06.378Z,17.70
2018-08-25T09:20:35.488Z,18.00
2018-08-25T09:23:04.431Z,18.20
2018-08-25T09:25:33.271Z,18.40
2018-08-25T09:28:02.255Z,18.80
2018-08-25T09:30:31.278Z,18.90
2018-08-25T09:33:00.126Z,18.80
2018-08-25T09:35:29.202Z,18.60
2018-08-25T09:37:58.058Z,18.40
2018-08-25T09:40:26.930Z,18.20
2018-08-25T09:42:55.914Z,18.00
2018-08-25T09:45:24.747Z,17.80
2018-08-25T09:47:53.671Z,17.50
2018-08-25T09:50:22.675Z,17.50
2018-08-25T09:52:51.494Z,17.30
2018-08-25T09:55:20.328Z,17.10
2018-08-25T09:57:49.318Z,17.00
2018-08-25T10:00:18.255Z,17.10
2018-08-25T10:02:47.236Z,17.10
2018-08-25T10:05:16.345Z,17.10
2018-08-25T10:07:45.120Z,17.10
2018-08-25T10:10:13.990Z,17.10
2018-08-25T10:12:45.288Z,17.10
2018-08-25T10:15:14.141Z,17.30
2018-08-25T10:17:42.958Z,17.40
2018-08-25T10:20:12.080Z,17.70
2018-08-25T10:22:41.162Z,18.00
2018-08-25T10:25:10.033Z,18.10
2018-08-25T10:27:38.999Z,18.20
2018-08-25T10:30:08.674Z,18.20
2018-08-25T10:32:37.590Z,18.20
2018-08-25T10:35:06.755Z,18.20
2018-08-25T10:37:35.604Z,18.30
2018-08-25T10:40:04.526Z,18.10
2018-08-25T10:42:33.672Z,18.00
2018-08-25T10:45:03.062Z,18.10
2018-08-25T10:47:31.912Z,18.10
2018-08-25T10:50:00.864Z,18.10
2018-08-25T10:52:29.782Z,18.00
2018-08-25T10:54:58.610Z,17.90
2018-08-25T10:57:27.657Z,17.80
2018-08-25T10:59:56.527Z,17.70
2018-08-25T11:02:26.647Z,17.60
2018-08-25T11:04:56.534Z,17.60
2018-08-25T11:07:25.595Z,17.80
2018-08-25T11:09:54.979Z,18.00
2018-08-25T11:12:23.939Z,18.00
2018-08-25T11:14:52.831Z,17.80
2018-08-25T11:17:21.696Z,17.80
2018-08-25T11:19:50.683Z,17.80
2018-08-25T11:22:19.714Z,18.10
2018-08-25T11:24:48.675Z,18.40
2018-08-25T11:27:17.706Z,18.70
2018-08-25T11:29:46.551Z,18.80
2018-08-25T11:32:15.418Z,18.90
2018-08-25T11:34:44.411Z,18.70
2018-08-25T11:37:13.343Z,18.60
2018-08-25T11:39:42.196Z,18.50
2018-08-25T11:42:12.083Z,18.60
2018-08-25T11:44:40.921Z,18.70
2018-08-25T11:47:15.107Z,18.70
2018-08-25T11:49:44.669Z,18.70
2018-08-25T11:52:13.560Z,18.70
2018-08-25T11:54:42.874Z,18.80
2018-08-25T11:57:11.724Z,18.80
2018-08-25T11:59:40.562Z,18.90
2018-08-25T12:02:09.599Z,18.90
2018-08-25T12:04:38.454Z,19.00
2018-08-25T12:07:07.379Z,19.10
2018-08-25T12:09:36.331Z,19.00
2018-08-25T12:12:05.155Z,19.00
2018-08-25T12:14:34.610Z,19.10
2018-08-25T12:17:03.642Z,19.00
2018-08-25T12:19:32.451Z,18.90
2018-08-25T12:22:01.404Z,18.80
2018-08-25T12:24:30.431Z,18.60
2018-08-25T12:27:02.676Z,18.40
2018-08-25T12:29:31.846Z,18.40
2018-08-25T12:32:00.727Z,18.30
2018-08-25T12:34:29.566Z,18.00
2018-08-25T12:36:58.620Z,18.00
2018-08-25T12:39:27.503Z,18.00
2018-08-25T12:41:56.302Z,17.80
2018-08-25T12:44:25.322Z,17.70
2018-08-25T12:46:54.126Z,17.60
2018-08-25T12:49:23.009Z,17.50
2018-08-25T12:51:52.311Z,17.50
2018-08-25T12:54:21.151Z,17.50
2018-08-25T12:56:49.975Z,17.60
2018-08-25T12:59:19.032Z,17.60
2018-08-25T13:01:47.849Z,17.70
2018-08-25T13:04:16.718Z,17.90
2018-08-25T13:06:45.807Z,18.20
2018-08-25T13:09:14.645Z,18.70
2018-08-25T13:11:43.471Z,19.50
2018-08-25T13:14:12.686Z,20.50
2018-08-25T13:16:41.546Z,20.60
2018-08-25T13:19:10.363Z,20.70
2018-08-25T13:21:39.378Z,20.80
2018-08-25T13:24:08.218Z,21.00
2018-08-25T13:26:37.049Z,22.40
2018-08-25T13:29:06.390Z,22.60
2018-08-25T13:31:35.196Z,22.90
2018-08-25T13:34:04.006Z,23.80
2018-08-25T13:36:32.951Z,24.40
2018-08-25T13:39:01.900Z,26.00
2018-08-25T13:41:30.787Z,26.20
2018-08-25T13:44:00.078Z,25.60
2018-08-25T13:46:28.877Z,26.80
2018-08-25T13:48:57.794Z,28.10
2018-08-25T13:51:26.698Z,29.30
2018-08-25T13:53:55.503Z,29.30
2018-08-25T13:56:24.375Z,27.80
2018-08-25T13:58:53.497Z,26.60
2018-08-25T14:01:23.227Z,26.00
2018-08-25T14:03:52.338Z,25.00
2018-08-25T14:06:21.422Z,27.50
2018-08-25T14:08:50.692Z,29.40
2018-08-25T14:11:19.686Z,31.20
2018-08-25T14:13:48.715Z,32.50
2018-08-25T14:16:18.094Z,32.20
2018-08-25T14:18:47.100Z,33.30
2018-08-25T14:21:16.319Z,33.60
2018-08-25T14:23:46.091Z,33.50
2018-08-25T14:26:15.114Z,32.40
2018-08-25T14:28:44.528Z,32.30
2018-08-25T14:31:13.774Z,31.00
2018-08-25T14:33:43.010Z,30.70
2018-08-25T14:36:12.150Z,30.30
2018-08-25T14:38:41.143Z,30.70
2018-08-25T14:41:10.058Z,29.90
2018-08-25T14:43:38.980Z,29.90
2018-08-25T14:46:07.948Z,29.30
2018-08-25T14:48:36.899Z,28.70
2018-08-25T14:51:06.018Z,28.30
2018-08-25T14:53:34.931Z,27.10
2018-08-25T14:56:03.863Z,25.80
2018-08-25T14:58:32.886Z,24.60
2018-08-25T15:01:01.869Z,23.60
2018-08-25T15:03:30.975Z,23.00
2018-08-25T15:06:00.171Z,22.90
2018-08-25T15:08:29.162Z,22.50
2018-08-25T15:10:58.278Z,22.20
2018-08-25T15:13:27.649Z,21.90
2018-08-25T15:15:56.790Z,22.50
2018-08-25T15:18:25.861Z,23.30
2018-08-25T15:20:55.172Z,23.60
2018-08-25T15:23:24.304Z,23.50
2018-08-25T15:25:53.351Z,23.20
2018-08-25T15:28:22.441Z,22.50
2018-08-25T15:30:52.664Z,22.20
2018-08-25T15:33:25.622Z,21.90
2018-08-25T15:38:30.820Z,21.40
2018-08-25T15:40:59.875Z,21.10
2018-08-25T15:43:28.762Z,20.80
2018-08-25T15:45:57.737Z,20.50
2018-08-25T15:48:26.703Z,20.60
2018-08-25T15:50:55.655Z,20.30
2018-08-25T15:53:24.811Z,20.30
2018-08-25T15:55:53.771Z,20.30
2018-08-25T15:58:23.039Z,20.00
2018-08-25T16:00:52.064Z,19.80
2018-08-25T16:03:20.911Z,19.50
2018-08-25T16:05:49.854Z,19.10
2018-08-25T16:08:18.871Z,18.90
2018-08-25T16:10:47.826Z,18.60
2018-08-25T16:13:16.764Z,18.50
2018-08-25T16:15:49.090Z,18.40
2018-08-25T16:18:17.935Z,18.20
2018-08-25T16:20:46.831Z,18.10
2018-08-25T16:23:15.770Z,18.10
2018-08-25T16:25:44.876Z,18.00
2018-08-25T16:28:13.762Z,17.80
2018-08-25T16:30:42.823Z,17.80
2018-08-25T16:33:11.658Z,17.80
2018-08-25T16:35:40.697Z,17.80
2018-08-25T16:38:09.696Z,17.80
2018-08-25T16:40:38.631Z,17.70
2018-08-25T16:43:07.611Z,17.50
2018-08-25T16:45:36.741Z,17.40
2018-08-25T16:48:05.765Z,17.20
2018-08-25T16:50:34.790Z,17.10
2018-08-25T16:53:03.875Z,17.00
2018-08-25T16:55:32.920Z,16.80
2018-08-25T16:58:01.975Z,16.70
2018-08-25T17:00:31.150Z,16.60
2018-08-25T17:03:00.067Z,16.50
2018-08-25T17:05:28.974Z,16.50
2018-08-25T17:07:57.933Z,16.40
2018-08-25T17:10:26.879Z,16.40
2018-08-25T17:12:56.036Z,16.30
2018-08-25T17:15:25.128Z,16.30
2018-08-25T17:17:53.962Z,16.40
2018-08-25T17:20:22.833Z,16.40
2018-08-25T17:22:51.811Z,16.50
2018-08-25T17:25:20.665Z,16.50
2018-08-25T17:27:49.587Z,16.50
2018-08-25T17:30:18.670Z,16.70
2018-08-25T17:32:47.887Z,16.80
2018-08-25T17:35:18.850Z,17.00
2018-08-25T17:37:48.260Z,17.00
2018-08-25T17:40:17.095Z,17.00
2018-08-25T17:42:45.931Z,16.90
2018-08-25T17:45:15.003Z,16.80
2018-08-25T17:47:43.859Z,16.90
2018-08-25T17:50:12.791Z,16.90
2018-08-25T17:52:41.972Z,16.60
2018-08-25T17:55:10.856Z,16.30
2018-08-25T17:57:39.975Z,15.90
2018-08-25T18:00:08.879Z,15.70
2018-08-25T18:02:37.688Z,15.40
2018-08-25T18:05:06.835Z,15.20
2018-08-25T18:07:36.102Z,15.00
2018-08-25T18:10:05.087Z,14.80
2018-08-25T18:12:33.964Z,14.80
2018-08-25T18:15:03.002Z,14.90
2018-08-25T18:17:31.874Z,14.50
2018-08-25T18:20:00.706Z,14.40
2018-08-25T18:22:29.743Z,14.20
2018-08-25T18:24:58.615Z,14.00
2018-08-25T18:27:27.490Z,14.00
2018-08-25T18:29:56.499Z,14.00
2018-08-25T18:32:25.377Z,13.80
2018-08-25T18:34:54.273Z,13.90
2018-08-25T18:37:23.373Z,13.70
2018-08-25T18:39:52.525Z,13.60
2018-08-25T18:42:21.538Z,13.50
2018-08-25T18:44:50.559Z,13.50
2018-08-25T18:47:19.440Z,13.50
2018-08-25T18:49:48.309Z,13.50
2018-08-25T18:52:17.614Z,13.50
2018-08-25T18:54:46.792Z,13.50
2018-08-25T18:57:15.647Z,13.50
2018-08-25T18:59:44.815Z,13.50
2018-08-25T19:02:13.909Z,13.50
2018-08-25T19:04:42.587Z,13.50
2018-08-25T19:07:11.740Z,13.40
2018-08-25T19:09:40.581Z,13.40
2018-08-25T19:12:09.487Z,13.40
2018-08-25T19:14:38.437Z,13.40
2018-08-25T19:17:07.291Z,13.40
2018-08-25T19:19:36.115Z,13.30
2018-08-25T19:22:05.195Z,13.30
2018-08-25T19:24:34.075Z,13.30
2018-08-25T19:27:02.963Z,13.30
2018-08-25T19:29:31.943Z,13.30
2018-08-25T19:32:00.811Z,13.30
2018-08-25T19:34:29.659Z,13.20
2018-08-25T19:36:58.682Z,13.20
2018-08-25T19:39:27.595Z,13.20
2018-08-25T19:41:56.687Z,13.20
2018-08-25T19:44:25.639Z,13.20
2018-08-25T19:46:54.689Z,13.10
2018-08-25T19:49:23.543Z,13.10
2018-08-25T19:51:52.599Z,13.10
2018-08-25T19:54:21.475Z,13.10
2018-08-25T19:56:50.472Z,13.00
2018-08-25T19:59:19.450Z,12.90
2018-08-25T20:01:48.489Z,13.00
2018-08-25T20:04:17.559Z,12.90
2018-08-25T20:06:46.563Z,12.90
2018-08-25T20:09:15.676Z,12.90
2018-08-25T20:11:44.631Z,12.80
2018-08-25T20:14:13.650Z,12.80
2018-08-25T20:16:42.540Z,12.70
2018-08-25T20:19:11.459Z,12.70
2018-08-25T20:21:40.636Z,12.70
2018-08-25T20:24:09.539Z,12.70
2018-08-25T20:26:38.394Z,12.60
2018-08-25T20:29:07.419Z,12.60
2018-08-25T20:31:36.287Z,12.60
2018-08-25T20:34:05.191Z,12.50
2018-08-25T20:36:34.707Z,12.50
2018-08-25T20:39:04.283Z,12.40
2018-08-25T20:41:33.265Z,12.40
2018-08-25T20:44:02.698Z,12.40
2018-08-25T20:46:31.671Z,12.30
2018-08-25T20:49:03.606Z,12.30
2018-08-25T20:51:32.927Z,12.30
2018-08-25T20:54:02.203Z,12.40
2018-08-25T20:56:32.144Z,12.40
2018-08-25T20:59:01.234Z,12.40
2018-08-25T21:01:30.062Z,12.40
2018-08-25T21:03:58.999Z,12.50
2018-08-25T21:06:28.027Z,12.60
2018-08-25T21:08:57.127Z,12.60
2018-08-25T21:11:26.071Z,12.70
2018-08-25T21:13:55.607Z,12.80
2018-08-25T21:16:24.499Z,12.80
2018-08-25T21:18:53.522Z,12.60
2018-08-25T21:21:22.555Z,12.70
2018-08-25T21:23:51.550Z,12.60
2018-08-25T21:26:20.518Z,12.60
2018-08-25T21:28:49.558Z,12.50
2018-08-25T21:31:18.431Z,12.50
2018-08-25T21:33:47.312Z,12.50
2018-08-25T21:36:16.278Z,12.40
2018-08-25T21:38:45.224Z,12.40
2018-08-25T21:41:14.142Z,12.30
2018-08-25T21:43:43.184Z,12.20
2018-08-25T21:46:12.130Z,12.20
2018-08-25T21:48:40.982Z,12.20
2018-08-25T21:51:09.982Z,12.20
2018-08-25T21:53:38.971Z,12.20
2018-08-25T21:56:07.937Z,12.20
2018-08-25T21:58:37.860Z,12.20
2018-08-25T22:01:06.850Z,12.20
2018-08-25T22:03:35.767Z,12.30
2018-08-25T22:06:04.745Z,12.40
2018-08-25T22:08:33.631Z,12.40
2018-08-25T22:11:02.520Z,12.50
2018-08-25T22:13:31.585Z,12.50
2018-08-25T22:16:00.795Z,12.60
2018-08-25T22:18:29.743Z,12.60
2018-08-25T22:20:59.041Z,12.70
2018-08-25T22:23:27.917Z,12.70
2018-08-25T22:25:56.771Z,12.70
2018-08-25T22:28:25.823Z,12.80
2018-08-25T22:30:54.762Z,12.80
2018-08-25T22:33:23.776Z,12.80
2018-08-25T22:35:52.967Z,12.80
2018-08-25T22:38:21.815Z,12.80
2018-08-25T22:40:50.806Z,12.70
2018-08-25T22:43:20.015Z,12.70
2018-08-25T22:45:48.870Z,12.70
2018-08-25T22:48:18.047Z,12.60
2018-08-25T22:50:47.077Z,12.50
2018-08-25T22:53:15.970Z,12.50
2018-08-25T22:55:44.844Z,12.50
2018-08-25T22:58:13.971Z,12.40
2018-08-25T23:00:42.932Z,12.40
2018-08-25T23:03:11.823Z,12.30
2018-08-25T23:05:41.098Z,12.30
2018-08-25T23:08:09.950Z,12.20
2018-08-25T23:10:39.295Z,12.20
2018-08-25T23:13:08.231Z,12.20
2018-08-25T23:15:37.088Z,12.20
2018-08-25T23:18:06.010Z,12.20
2018-08-25T23:20:35.003Z,12.20
2018-08-25T23:23:04.099Z,12.10
2018-08-25T23:25:32.931Z,12.10
2018-08-25T23:28:02.098Z,12.10
2018-08-25T23:30:31.209Z,12.20
2018-08-25T23:33:00.050Z,12.20
2018-08-25T23:35:29.241Z,12.20
2018-08-25T23:37:58.098Z,12.10
2018-08-25T23:40:27.000Z,12.10
2018-08-25T23:42:56.124Z,12.10
2018-08-25T23:45:24.988Z,12.10
2018-08-25T23:47:53.925Z,12.10
2018-08-25T23:50:23.124Z,12.00
2018-08-25T23:52:52.155Z,12.00
2018-08-25T23:55:20.996Z,11.90
2018-08-25T23:57:50.042Z,11.90
